SAS4552 ENBO-ENTC
Flight info
| Callsign | SAS4552 |
|---|---|
| Flight time | 0h 38m |
| Altitude | 35000 |
| Route | PENNO DCT ATWEG |
| Aircraft | B737/M-SDE2E3FGHIRWXY/LB1 |
Departure
| Time | 2026-04-29 11:20 |
|---|---|
| Airport | Bodø Airport (ENBO) |
Arrival
| Time | 2026-04-29 11:59 |
|---|---|
| Airport | Tromsø Airport (ENTC) |
| Time | Latitude | Longitude | Altitude | Speed | Heading |
|---|---|---|---|---|---|
| 2026-04-29 10:37 | 67.27149 | 14.36687 | 44 ft | 0 kts | 34° |
| 2026-04-29 11:05 | 67.27145 | 14.36679 | 46 ft | 4 kts | 34° |
| 2026-04-29 11:05 | 67.27122 | 14.36640 | 42 ft | 4 kts | 34° |
| 2026-04-29 11:06 | 67.27100 | 14.36601 | 42 ft | 4 kts | 34° |
| 2026-04-29 11:06 | 67.27092 | 14.36587 | 43 ft | 0 kts | 34° |
| 2026-04-29 11:08 | 67.27100 | 14.36584 | 43 ft | 2 kts | 342° |
| 2026-04-29 11:09 | 67.27105 | 14.36541 | 45 ft | 6 kts | 270° |
| 2026-04-29 11:09 | 67.27072 | 14.36462 | 44 ft | 10 kts | 205° |
| 2026-04-29 11:09 | 67.27032 | 14.36261 | 42 ft | 16 kts | 259° |
| 2026-04-29 11:09 | 67.27010 | 14.35946 | 39 ft | 23 kts | 259° |
| 2026-04-29 11:10 | 67.26973 | 14.35503 | 37 ft | 25 kts | 258° |
| 2026-04-29 11:10 | 67.26938 | 14.35086 | 33 ft | 23 kts | 257° |
| 2026-04-29 11:10 | 67.26906 | 14.34688 | 35 ft | 22 kts | 259° |
| 2026-04-29 11:10 | 67.26873 | 14.34300 | 33 ft | 22 kts | 257° |
| 2026-04-29 11:11 | 67.26840 | 14.33913 | 27 ft | 22 kts | 258° |
| 2026-04-29 11:11 | 67.26810 | 14.33537 | 30 ft | 21 kts | 259° |
| 2026-04-29 11:11 | 67.26778 | 14.33374 | 29 ft | 4 kts | 180° |
| 2026-04-29 11:11 | 67.26756 | 14.33386 | 25 ft | 0 kts | 168° |
| 2026-04-29 11:13 | 67.26755 | 14.33387 | 30 ft | 2 kts | 168° |
| 2026-04-29 11:13 | 67.26754 | 14.33387 | 29 ft | 0 kts | 168° |
| 2026-04-29 11:19 | 67.26737 | 14.33397 | 26 ft | 7 kts | 168° |
| 2026-04-29 11:19 | 67.26686 | 14.33425 | 28 ft | 8 kts | 168° |
| 2026-04-29 11:19 | 67.26670 | 14.33518 | 29 ft | 6 kts | 64° |
| 2026-04-29 11:19 | 67.26680 | 14.33648 | 29 ft | 11 kts | 79° |
| 2026-04-29 11:20 | 67.26733 | 14.34255 | 31 ft | 71 kts | 78° |
| 2026-04-29 11:20 | 67.26884 | 14.36081 | 40 ft | 134 kts | 78° |
| 2026-04-29 11:20 | 67.27083 | 14.38720 | 465 ft | 152 kts | 83° |
| 2026-04-29 11:20 | 67.27230 | 14.41481 | 1192 ft | 169 kts | 87° |
| 2026-04-29 11:21 | 67.27358 | 14.44734 | 1746 ft | 185 kts | 88° |
| 2026-04-29 11:21 | 67.27478 | 14.48196 | 2370 ft | 212 kts | 88° |
| 2026-04-29 11:21 | 67.27571 | 14.52327 | 2764 ft | 243 kts | 90° |
| 2026-04-29 11:21 | 67.27589 | 14.56711 | 3703 ft | 246 kts | 92° |
| 2026-04-29 11:22 | 67.27538 | 14.61151 | 4762 ft | 247 kts | 92° |
| 2026-04-29 11:22 | 67.27578 | 14.65616 | 5788 ft | 250 kts | 87° |
| 2026-04-29 11:22 | 67.27993 | 14.69938 | 6720 ft | 249 kts | 51° |
| 2026-04-29 11:22 | 67.29276 | 14.72456 | 7851 ft | 223 kts | 13° |
| 2026-04-29 11:23 | 67.30723 | 14.74232 | 8647 ft | 240 kts | 21° |
| 2026-04-29 11:23 | 67.32247 | 14.76200 | 9556 ft | 249 kts | 20° |
| 2026-04-29 11:23 | 67.33846 | 14.78221 | 10443 ft | 262 kts | 20° |
| 2026-04-29 11:23 | 67.35518 | 14.80360 | 11294 ft | 274 kts | 21° |
| 2026-04-29 11:24 | 67.37232 | 14.82663 | 12115 ft | 286 kts | 21° |
| 2026-04-29 11:24 | 67.39021 | 14.84999 | 13012 ft | 288 kts | 20° |
| 2026-04-29 11:24 | 67.40821 | 14.87369 | 14039 ft | 291 kts | 21° |
| 2026-04-29 11:24 | 67.42630 | 14.89775 | 15168 ft | 293 kts | 21° |
| 2026-04-29 11:25 | 67.44457 | 14.92222 | 16237 ft | 298 kts | 21° |
| 2026-04-29 11:25 | 67.46312 | 14.94721 | 17272 ft | 303 kts | 21° |
| 2026-04-29 11:25 | 67.48203 | 14.97276 | 18300 ft | 309 kts | 21° |
| 2026-04-29 11:25 | 67.50133 | 14.99895 | 19250 ft | 314 kts | 21° |
| 2026-04-29 11:26 | 67.54048 | 15.05236 | 21133 ft | 321 kts | 20° |
| 2026-04-29 11:26 | 67.56037 | 15.07959 | 22094 ft | 324 kts | 20° |
| 2026-04-29 11:26 | 67.58046 | 15.10717 | 23055 ft | 328 kts | 20° |
| 2026-04-29 11:27 | 67.60078 | 15.13509 | 23949 ft | 332 kts | 20° |
| 2026-04-29 11:27 | 67.62133 | 15.16339 | 24742 ft | 335 kts | 19° |
| 2026-04-29 11:27 | 67.64208 | 15.19205 | 25552 ft | 338 kts | 19° |
| 2026-04-29 11:27 | 67.66295 | 15.22094 | 26373 ft | 341 kts | 18° |
| 2026-04-29 11:28 | 67.68407 | 15.25022 | 27198 ft | 344 kts | 18° |
| 2026-04-29 11:28 | 67.70538 | 15.27980 | 27972 ft | 348 kts | 17° |
| 2026-04-29 11:28 | 67.72692 | 15.30975 | 28760 ft | 352 kts | 17° |
| 2026-04-29 11:28 | 67.74873 | 15.34017 | 29573 ft | 355 kts | 17° |
| 2026-04-29 11:29 | 67.77034 | 15.37038 | 30321 ft | 358 kts | 16° |
| 2026-04-29 11:29 | 67.79247 | 15.40138 | 30923 ft | 362 kts | 16° |
| 2026-04-29 11:29 | 67.81486 | 15.43279 | 31454 ft | 369 kts | 16° |
| 2026-04-29 11:29 | 67.83804 | 15.46516 | 31599 ft | 384 kts | 17° |
| 2026-04-29 11:30 | 67.86215 | 15.49886 | 31732 ft | 399 kts | 17° |
| 2026-04-29 11:30 | 67.88701 | 15.53383 | 31901 ft | 410 kts | 17° |
| 2026-04-29 11:30 | 67.91234 | 15.56976 | 32248 ft | 416 kts | 17° |
| 2026-04-29 11:30 | 67.93802 | 15.60642 | 32716 ft | 419 kts | 18° |
| 2026-04-29 11:31 | 67.96365 | 15.64321 | 33337 ft | 418 kts | 17° |
| 2026-04-29 11:31 | 67.98918 | 15.67999 | 33964 ft | 415 kts | 17° |
| 2026-04-29 11:31 | 68.01454 | 15.71655 | 34491 ft | 414 kts | 17° |
| 2026-04-29 11:31 | 68.03996 | 15.75313 | 34828 ft | 416 kts | 18° |
| 2026-04-29 11:32 | 68.06558 | 15.78997 | 35123 ft | 420 kts | 18° |
| 2026-04-29 11:32 | 68.09162 | 15.82739 | 35143 ft | 429 kts | 18° |
| 2026-04-29 11:32 | 68.14512 | 15.90458 | 35157 ft | 441 kts | 19° |
| 2026-04-29 11:33 | 68.19863 | 15.98275 | 35157 ft | 440 kts | 19° |
| 2026-04-29 11:33 | 68.25242 | 16.06176 | 35147 ft | 439 kts | 19° |
| 2026-04-29 11:34 | 68.30600 | 16.14071 | 35142 ft | 438 kts | 19° |
| 2026-04-29 11:34 | 68.35947 | 16.21984 | 35138 ft | 438 kts | 19° |
| 2026-04-29 11:35 | 68.41294 | 16.29940 | 35167 ft | 438 kts | 19° |
| 2026-04-29 11:35 | 68.46640 | 16.37933 | 35126 ft | 439 kts | 20° |
| 2026-04-29 11:36 | 68.51984 | 16.45973 | 35132 ft | 439 kts | 20° |
| 2026-04-29 11:36 | 68.57337 | 16.54068 | 35129 ft | 440 kts | 20° |
| 2026-04-29 11:37 | 68.62687 | 16.62207 | 35134 ft | 440 kts | 20° |
| 2026-04-29 11:37 | 68.68007 | 16.70343 | 35129 ft | 441 kts | 20° |
| 2026-04-29 11:38 | 68.73360 | 16.78574 | 35139 ft | 441 kts | 20° |
| 2026-04-29 11:38 | 68.78722 | 16.86866 | 35128 ft | 442 kts | 20° |
| 2026-04-29 11:39 | 68.84086 | 16.95206 | 35118 ft | 442 kts | 20° |
| 2026-04-29 11:39 | 68.89443 | 17.03584 | 35124 ft | 442 kts | 21° |
| 2026-04-29 11:40 | 68.94790 | 17.11993 | 35111 ft | 442 kts | 21° |
| 2026-04-29 11:40 | 69.00132 | 17.20442 | 35154 ft | 441 kts | 21° |
| 2026-04-29 11:41 | 69.02804 | 17.24681 | 34806 ft | 446 kts | 22° |
| 2026-04-29 11:41 | 69.05509 | 17.28982 | 34003 ft | 445 kts | 21° |
| 2026-04-29 11:41 | 69.08188 | 17.33266 | 32853 ft | 444 kts | 21° |
| 2026-04-29 11:41 | 69.10867 | 17.37560 | 31794 ft | 443 kts | 21° |
| 2026-04-29 11:42 | 69.13539 | 17.41852 | 30676 ft | 443 kts | 21° |
| 2026-04-29 11:42 | 69.16203 | 17.46146 | 29794 ft | 437 kts | 22° |
| 2026-04-29 11:42 | 69.18814 | 17.50378 | 28908 ft | 429 kts | 22° |
| 2026-04-29 11:42 | 69.21375 | 17.54540 | 28100 ft | 421 kts | 22° |
| 2026-04-29 11:43 | 69.23889 | 17.58632 | 27316 ft | 414 kts | 22° |
| 2026-04-29 11:43 | 69.26331 | 17.62611 | 26550 ft | 408 kts | 22° |
| 2026-04-29 11:43 | 69.28772 | 17.66594 | 25774 ft | 403 kts | 22° |
| 2026-04-29 11:43 | 69.31184 | 17.70538 | 25017 ft | 399 kts | 23° |
| 2026-04-29 11:44 | 69.33580 | 17.74463 | 24252 ft | 396 kts | 23° |
| 2026-04-29 11:44 | 69.35953 | 17.78361 | 23460 ft | 393 kts | 24° |
| 2026-04-29 11:44 | 69.38311 | 17.82236 | 22580 ft | 390 kts | 24° |
| 2026-04-29 11:44 | 69.39890 | 17.84843 | 22059 ft | 387 kts | 24° |
| 2026-04-29 11:45 | 69.42197 | 17.88668 | 21299 ft | 382 kts | 24° |
| 2026-04-29 11:45 | 69.44480 | 17.92465 | 20545 ft | 378 kts | 24° |
| 2026-04-29 11:45 | 69.46738 | 17.96229 | 19786 ft | 374 kts | 24° |
| 2026-04-29 11:45 | 69.48971 | 17.99959 | 19048 ft | 370 kts | 25° |
| 2026-04-29 11:46 | 69.51183 | 18.03660 | 18301 ft | 367 kts | 25° |
| 2026-04-29 11:46 | 69.53376 | 18.07337 | 17486 ft | 364 kts | 25° |
| 2026-04-29 11:46 | 69.55518 | 18.10939 | 16748 ft | 359 kts | 25° |
| 2026-04-29 11:46 | 69.57662 | 18.14552 | 16021 ft | 355 kts | 25° |
| 2026-04-29 11:47 | 69.59780 | 18.18129 | 15301 ft | 352 kts | 25° |
| 2026-04-29 11:47 | 69.61885 | 18.21690 | 14603 ft | 350 kts | 26° |
| 2026-04-29 11:47 | 69.63977 | 18.25238 | 13887 ft | 349 kts | 26° |
| 2026-04-29 11:47 | 69.66063 | 18.28782 | 13104 ft | 348 kts | 26° |
| 2026-04-29 11:48 | 69.68144 | 18.32329 | 12384 ft | 345 kts | 26° |
| 2026-04-29 11:48 | 69.70189 | 18.35826 | 11674 ft | 335 kts | 27° |
| 2026-04-29 11:48 | 69.72154 | 18.39201 | 10979 ft | 324 kts | 27° |
| 2026-04-29 11:48 | 69.74060 | 18.42473 | 10466 ft | 311 kts | 27° |
| 2026-04-29 11:49 | 69.75838 | 18.45542 | 10354 ft | 288 kts | 26° |
| 2026-04-29 11:49 | 69.77523 | 18.48453 | 10206 ft | 277 kts | 26° |
| 2026-04-29 11:49 | 69.79166 | 18.51290 | 10126 ft | 277 kts | 26° |
| 2026-04-29 11:49 | 69.80857 | 18.54189 | 9737 ft | 289 kts | 26° |
| 2026-04-29 11:50 | 69.82584 | 18.57170 | 9264 ft | 289 kts | 26° |
| 2026-04-29 11:50 | 69.84308 | 18.60162 | 8808 ft | 289 kts | 27° |
| 2026-04-29 11:50 | 69.86023 | 18.63146 | 8389 ft | 287 kts | 27° |
| 2026-04-29 11:50 | 69.87738 | 18.66132 | 7956 ft | 287 kts | 27° |
| 2026-04-29 11:51 | 69.89453 | 18.69122 | 7495 ft | 288 kts | 27° |
| 2026-04-29 11:51 | 69.91161 | 18.72109 | 6991 ft | 283 kts | 27° |
| 2026-04-29 11:51 | 69.92794 | 18.74979 | 6813 ft | 265 kts | 27° |
| 2026-04-29 11:51 | 69.94316 | 18.77741 | 6661 ft | 253 kts | 34° |
| 2026-04-29 11:52 | 69.95394 | 18.81731 | 6543 ft | 253 kts | 67° |
| 2026-04-29 11:52 | 69.95672 | 18.86765 | 6465 ft | 254 kts | 95° |
| 2026-04-29 11:52 | 69.95377 | 18.91859 | 6380 ft | 256 kts | 104° |
| 2026-04-29 11:52 | 69.94963 | 18.96879 | 6256 ft | 250 kts | 105° |
| 2026-04-29 11:53 | 69.94564 | 19.01661 | 6127 ft | 238 kts | 106° |
| 2026-04-29 11:53 | 69.93807 | 19.05681 | 5835 ft | 224 kts | 143° |
| 2026-04-29 11:53 | 69.92448 | 19.07227 | 5627 ft | 207 kts | 185° |
| 2026-04-29 11:53 | 69.91029 | 19.06720 | 5393 ft | 207 kts | 193° |
| 2026-04-29 11:54 | 69.89605 | 19.05958 | 5147 ft | 209 kts | 195° |
| 2026-04-29 11:54 | 69.88190 | 19.05072 | 4884 ft | 205 kts | 196° |
| 2026-04-29 11:54 | 69.86838 | 19.04185 | 4618 ft | 192 kts | 196° |
| 2026-04-29 11:54 | 69.85583 | 19.03352 | 4502 ft | 180 kts | 197° |
| 2026-04-29 11:55 | 69.84358 | 19.02538 | 4322 ft | 182 kts | 198° |
| 2026-04-29 11:55 | 69.83109 | 19.01702 | 3988 ft | 184 kts | 197° |
| 2026-04-29 11:55 | 69.81872 | 19.00881 | 3642 ft | 180 kts | 197° |
| 2026-04-29 11:55 | 69.80671 | 19.00085 | 3302 ft | 173 kts | 196° |
| 2026-04-29 11:56 | 69.79511 | 18.99319 | 3006 ft | 171 kts | 196° |
| 2026-04-29 11:56 | 69.78379 | 18.98569 | 2682 ft | 160 kts | 195° |
| 2026-04-29 11:56 | 69.77336 | 18.97871 | 2407 ft | 150 kts | 194° |
| 2026-04-29 11:56 | 69.76330 | 18.97203 | 2145 ft | 147 kts | 193° |
| 2026-04-29 11:57 | 69.75328 | 18.96536 | 1854 ft | 148 kts | 192° |
| 2026-04-29 11:57 | 69.74326 | 18.95872 | 1564 ft | 148 kts | 192° |
| 2026-04-29 11:57 | 69.73373 | 18.95239 | 1273 ft | 134 kts | 192° |
| 2026-04-29 11:57 | 69.72502 | 18.94660 | 1008 ft | 124 kts | 192° |
| 2026-04-29 11:58 | 69.71681 | 18.94115 | 775 ft | 120 kts | 192° |
| 2026-04-29 11:58 | 69.70861 | 18.93570 | 565 ft | 121 kts | 193° |
| 2026-04-29 11:58 | 69.70041 | 18.93026 | 358 ft | 119 kts | 194° |
| 2026-04-29 11:58 | 69.69253 | 18.92503 | 120 ft | 113 kts | 195° |
| 2026-04-29 11:59 | 69.68516 | 18.92010 | 26 ft | 101 kts | 193° |
| 2026-04-29 11:59 | 69.67951 | 18.91632 | 36 ft | 63 kts | 192° |
| 2026-04-29 11:59 | 69.67748 | 18.91497 | 38 ft | 9 kts | 195° |
| 2026-04-29 11:59 | 69.67735 | 18.91345 | 39 ft | 9 kts | 281° |
| 2026-04-29 12:00 | 69.67746 | 18.91189 | 39 ft | 6 kts | 284° |
| 2026-04-29 12:00 | 69.67783 | 18.91139 | 39 ft | 7 kts | 8° |
| 2026-04-29 12:00 | 69.67831 | 18.91166 | 37 ft | 8 kts | 12° |
| 2026-04-29 12:00 | 69.67874 | 18.91152 | 35 ft | 6 kts | 295° |
| 2026-04-29 12:01 | 69.67883 | 18.91033 | 36 ft | 5 kts | 283° |
| 2026-04-29 12:01 | 69.67891 | 18.90938 | 36 ft | 5 kts | 283° |
| 2026-04-29 12:01 | 69.67897 | 18.90864 | 36 ft | 3 kts | 283° |
| 2026-04-29 12:02 | 69.67897 | 18.90866 | 36 ft | 0 kts | 283° |